sensor_id;sensor_type;location;lat;lon;timestamp;temperature;humidity
19622;DHT22;9958;33.196;-97.114;2023-05-07T00:00:03;30.00;99.90
19622;DHT22;9958;33.196;-97.114;2023-05-07T00:02:34;30.00;99.90
19622;DHT22;9958;33.196;-97.114;2023-05-07T00:05:04;30.00;99.90
19622;DHT22;9958;33.196;-97.114;2023-05-07T00:07:32;29.90;99.90
19622;DHT22;9958;33.196;-97.114;2023-05-07T00:10:01;29.80;99.90
19622;DHT22;9958;33.196;-97.114;2023-05-07T00:12:29;29.70;99.90
19622;DHT22;9958;33.196;-97.114;2023-05-07T00:15:01;29.70;99.90
19622;DHT22;9958;33.196;-97.114;2023-05-07T00:17:30;29.60;99.90
19622;DHT22;9958;33.196;-97.114;2023-05-07T00:19:58;29.50;99.90
19622;DHT22;9958;33.196;-97.114;2023-05-07T00:22:27;29.50;99.90
19622;DHT22;9958;33.196;-97.114;2023-05-07T00:24:56;29.40;99.90
19622;DHT22;9958;33.196;-97.114;2023-05-07T00:27:25;29.30;99.90
19622;DHT22;9958;33.196;-97.114;2023-05-07T00:29:53;29.20;99.90
19622;DHT22;9958;33.196;-97.114;2023-05-07T00:32:23;29.20;99.90
19622;DHT22;9958;33.196;-97.114;2023-05-07T00:34:52;29.10;99.90
19622;DHT22;9958;33.196;-97.114;2023-05-07T00:37:20;29.10;99.90
19622;DHT22;9958;33.196;-97.114;2023-05-07T00:39:48;29.10;99.90
19622;DHT22;9958;33.196;-97.114;2023-05-07T00:42:16;29.10;99.90
19622;DHT22;9958;33.196;-97.114;2023-05-07T00:44:45;29.00;99.90
19622;DHT22;9958;33.196;-97.114;2023-05-07T00:47:13;28.90;99.90
19622;DHT22;9958;33.196;-97.114;2023-05-07T00:49:44;28.90;99.90
19622;DHT22;9958;33.196;-97.114;2023-05-07T00:52:15;28.90;99.90
19622;DHT22;9958;33.196;-97.114;2023-05-07T00:54:45;28.80;99.90
19622;DHT22;9958;33.196;-97.114;2023-05-07T00:57:13;28.80;99.90
19622;DHT22;9958;33.196;-97.114;2023-05-07T00:59:42;28.70;99.90
19622;DHT22;9958;33.196;-97.114;2023-05-07T01:02:11;28.70;99.90
19622;DHT22;9958;33.196;-97.114;2023-05-07T01:04:39;28.70;99.90
19622;DHT22;9958;33.196;-97.114;2023-05-07T01:07:09;28.60;99.90
19622;DHT22;9958;33.196;-97.114;2023-05-07T01:09:38;28.70;99.90
19622;DHT22;9958;33.196;-97.114;2023-05-07T01:12:07;28.60;99.90
19622;DHT22;9958;33.196;-97.114;2023-05-07T01:14:36;28.60;99.90
19622;DHT22;9958;33.196;-97.114;2023-05-07T01:17:04;28.60;99.90
19622;DHT22;9958;33.196;-97.114;2023-05-07T01:19:33;28.60;99.90
19622;DHT22;9958;33.196;-97.114;2023-05-07T01:22:03;28.50;99.90
19622;DHT22;9958;33.196;-97.114;2023-05-07T01:24:37;28.50;99.90
19622;DHT22;9958;33.196;-97.114;2023-05-07T01:27:05;28.50;99.90
19622;DHT22;9958;33.196;-97.114;2023-05-07T01:29:34;28.50;99.90
19622;DHT22;9958;33.196;-97.114;2023-05-07T01:32:03;28.50;99.90
19622;DHT22;9958;33.196;-97.114;2023-05-07T01:34:33;28.50;99.90
19622;DHT22;9958;33.196;-97.114;2023-05-07T01:37:02;28.40;99.90
19622;DHT22;9958;33.196;-97.114;2023-05-07T01:39:31;28.40;99.90
19622;DHT22;9958;33.196;-97.114;2023-05-07T01:42:01;28.40;99.90
19622;DHT22;9958;33.196;-97.114;2023-05-07T01:44:30;28.40;99.90
19622;DHT22;9958;33.196;-97.114;2023-05-07T01:46:59;28.30;99.90
19622;DHT22;9958;33.196;-97.114;2023-05-07T01:49:28;28.40;99.90
19622;DHT22;9958;33.196;-97.114;2023-05-07T01:51:56;28.30;99.90
19622;DHT22;9958;33.196;-97.114;2023-05-07T01:54:26;28.30;99.90
19622;DHT22;9958;33.196;-97.114;2023-05-07T01:56:57;28.30;99.90
19622;DHT22;9958;33.196;-97.114;2023-05-07T01:59:26;28.20;99.90
19622;DHT22;9958;33.196;-97.114;2023-05-07T02:01:55;28.20;99.90
19622;DHT22;9958;33.196;-97.114;2023-05-07T02:04:23;28.20;99.90
19622;DHT22;9958;33.196;-97.114;2023-05-07T02:06:52;28.20;99.90
19622;DHT22;9958;33.196;-97.114;2023-05-07T02:09:20;28.10;99.90
19622;DHT22;9958;33.196;-97.114;2023-05-07T02:11:49;28.10;99.90
19622;DHT22;9958;33.196;-97.114;2023-05-07T02:14:17;28.00;99.90
19622;DHT22;9958;33.196;-97.114;2023-05-07T02:16:48;27.90;98.20
19622;DHT22;9958;33.196;-97.114;2023-05-07T02:19:16;27.80;95.20
19622;DHT22;9958;33.196;-97.114;2023-05-07T02:21:44;27.70;98.50
19622;DHT22;9958;33.196;-97.114;2023-05-07T02:24:12;27.60;99.90
19622;DHT22;9958;33.196;-97.114;2023-05-07T02:26:41;27.60;99.90
19622;DHT22;9958;33.196;-97.114;2023-05-07T02:29:09;27.40;99.90
19622;DHT22;9958;33.196;-97.114;2023-05-07T02:31:37;27.20;99.90
19622;DHT22;9958;33.196;-97.114;2023-05-07T02:34:07;27.00;99.90
19622;DHT22;9958;33.196;-97.114;2023-05-07T02:36:36;26.80;99.90
19622;DHT22;9958;33.196;-97.114;2023-05-07T02:39:04;26.60;99.90
19622;DHT22;9958;33.196;-97.114;2023-05-07T02:41:32;26.30;99.90
19622;DHT22;9958;33.196;-97.114;2023-05-07T02:44:00;26.10;99.90
19622;DHT22;9958;33.196;-97.114;2023-05-07T02:46:29;25.90;99.90
19622;DHT22;9958;33.196;-97.114;2023-05-07T02:48:57;25.70;99.90
19622;DHT22;9958;33.196;-97.114;2023-05-07T02:51:27;25.60;99.90
19622;DHT22;9958;33.196;-97.114;2023-05-07T02:53:56;25.30;99.90
19622;DHT22;9958;33.196;-97.114;2023-05-07T02:56:26;25.10;99.90
19622;DHT22;9958;33.196;-97.114;2023-05-07T02:58:54;24.80;99.90
19622;DHT22;9958;33.196;-97.114;2023-05-07T03:01:23;24.70;99.90
19622;DHT22;9958;33.196;-97.114;2023-05-07T03:03:51;24.50;99.90
19622;DHT22;9958;33.196;-97.114;2023-05-07T03:06:19;24.20;99.90
19622;DHT22;9958;33.196;-97.114;2023-05-07T03:08:49;23.90;99.90
19622;DHT22;9958;33.196;-97.114;2023-05-07T03:11:18;23.70;99.90
19622;DHT22;9958;33.196;-97.114;2023-05-07T03:13:46;23.50;99.90
19622;DHT22;9958;33.196;-97.114;2023-05-07T03:16:16;23.30;99.90
19622;DHT22;9958;33.196;-97.114;2023-05-07T03:18:44;23.10;99.90
19622;DHT22;9958;33.196;-97.114;2023-05-07T03:21:13;22.90;99.90
19622;DHT22;9958;33.196;-97.114;2023-05-07T03:23:41;22.80;99.90
19622;DHT22;9958;33.196;-97.114;2023-05-07T03:26:11;22.60;99.90
19622;DHT22;9958;33.196;-97.114;2023-05-07T03:28:39;22.50;99.90
19622;DHT22;9958;33.196;-97.114;2023-05-07T03:31:07;22.40;99.90
19622;DHT22;9958;33.196;-97.114;2023-05-07T03:33:49;22.30;99.90
19622;DHT22;9958;33.196;-97.114;2023-05-07T03:36:18;22.10;99.90
19622;DHT22;9958;33.196;-97.114;2023-05-07T03:38:47;22.10;99.90
19622;DHT22;9958;33.196;-97.114;2023-05-07T03:41:17;21.90;99.90
19622;DHT22;9958;33.196;-97.114;2023-05-07T03:43:46;21.90;99.90
19622;DHT22;9958;33.196;-97.114;2023-05-07T03:46:15;21.80;99.90
19622;DHT22;9958;33.196;-97.114;2023-05-07T03:48:43;21.70;99.90
19622;DHT22;9958;33.196;-97.114;2023-05-07T03:51:11;21.60;99.90
19622;DHT22;9958;33.196;-97.114;2023-05-07T03:53:40;21.50;99.90
19622;DHT22;9958;33.196;-97.114;2023-05-07T03:56:08;21.40;99.90
19622;DHT22;9958;33.196;-97.114;2023-05-07T03:58:38;21.30;99.90
19622;DHT22;9958;33.196;-97.114;2023-05-07T04:01:06;21.30;99.90
19622;DHT22;9958;33.196;-97.114;2023-05-07T04:03:35;21.20;99.90
19622;DHT22;9958;33.196;-97.114;2023-05-07T04:06:03;21.20;99.90
19622;DHT22;9958;33.196;-97.114;2023-05-07T04:08:32;21.10;99.90
19622;DHT22;9958;33.196;-97.114;2023-05-07T04:11:00;21.00;99.90
19622;DHT22;9958;33.196;-97.114;2023-05-07T04:13:30;21.00;99.90
19622;DHT22;9958;33.196;-97.114;2023-05-07T04:16:02;21.00;99.90
19622;DHT22;9958;33.196;-97.114;2023-05-07T04:18:30;20.90;99.90
19622;DHT22;9958;33.196;-97.114;2023-05-07T04:20:59;20.80;99.90
19622;DHT22;9958;33.196;-97.114;2023-05-07T04:23:27;20.80;99.90
19622;DHT22;9958;33.196;-97.114;2023-05-07T04:25:56;20.80;99.90
19622;DHT22;9958;33.196;-97.114;2023-05-07T04:28:24;20.70;99.90
19622;DHT22;9958;33.196;-97.114;2023-05-07T04:30:52;20.70;99.90
19622;DHT22;9958;33.196;-97.114;2023-05-07T04:33:22;20.60;99.90
19622;DHT22;9958;33.196;-97.114;2023-05-07T04:35:51;20.60;99.90
19622;DHT22;9958;33.196;-97.114;2023-05-07T04:38:19;20.60;99.90
19622;DHT22;9958;33.196;-97.114;2023-05-07T04:40:47;20.50;99.90
19622;DHT22;9958;33.196;-97.114;2023-05-07T04:43:16;20.50;99.90
19622;DHT22;9958;33.196;-97.114;2023-05-07T04:45:44;20.50;99.90
19622;DHT22;9958;33.196;-97.114;2023-05-07T04:48:12;20.40;99.90
19622;DHT22;9958;33.196;-97.114;2023-05-07T04:50:44;20.40;99.90
19622;DHT22;9958;33.196;-97.114;2023-05-07T04:53:12;20.40;99.90
19622;DHT22;9958;33.196;-97.114;2023-05-07T04:55:40;20.40;99.90
19622;DHT22;9958;33.196;-97.114;2023-05-07T04:58:09;20.40;99.90
19622;DHT22;9958;33.196;-97.114;2023-05-07T05:00:38;20.40;99.90
19622;DHT22;9958;33.196;-97.114;2023-05-07T05:03:07;20.30;99.90
19622;DHT22;9958;33.196;-97.114;2023-05-07T05:05:35;20.30;99.90
19622;DHT22;9958;33.196;-97.114;2023-05-07T05:08:05;20.30;99.90
19622;DHT22;9958;33.196;-97.114;2023-05-07T05:10:33;20.30;99.90
19622;DHT22;9958;33.196;-97.114;2023-05-07T05:13:02;20.30;99.90
19622;DHT22;9958;33.196;-97.114;2023-05-07T05:15:30;20.30;99.90
19622;DHT22;9958;33.196;-97.114;2023-05-07T05:17:58;20.30;99.90
19622;DHT22;9958;33.196;-97.114;2023-05-07T05:20:27;20.30;99.90
19622;DHT22;9958;33.196;-97.114;2023-05-07T05:22:55;20.30;99.90
19622;DHT22;9958;33.196;-97.114;2023-05-07T05:25:25;20.30;99.90
19622;DHT22;9958;33.196;-97.114;2023-05-07T05:27:53;20.30;99.90
19622;DHT22;9958;33.196;-97.114;2023-05-07T05:30:22;20.30;99.90
19622;DHT22;9958;33.196;-97.114;2023-05-07T05:32:50;20.30;99.90
19622;DHT22;9958;33.196;-97.114;2023-05-07T05:35:18;20.30;99.90
19622;DHT22;9958;33.196;-97.114;2023-05-07T05:37:47;20.20;99.90
19622;DHT22;9958;33.196;-97.114;2023-05-07T05:40:16;20.20;99.90
19622;DHT22;9958;33.196;-97.114;2023-05-07T05:42:45;20.20;99.90
19622;DHT22;9958;33.196;-97.114;2023-05-07T05:45:14;20.20;99.90
19622;DHT22;9958;33.196;-97.114;2023-05-07T05:47:42;20.20;99.90
19622;DHT22;9958;33.196;-97.114;2023-05-07T05:50:11;20.20;99.90
19622;DHT22;9958;33.196;-97.114;2023-05-07T05:52:39;20.20;99.90
19622;DHT22;9958;33.196;-97.114;2023-05-07T05:55:09;20.20;99.90
19622;DHT22;9958;33.196;-97.114;2023-05-07T05:57:37;20.20;99.90
19622;DHT22;9958;33.196;-97.114;2023-05-07T06:00:09;20.30;99.90
19622;DHT22;9958;33.196;-97.114;2023-05-07T06:02:37;20.30;99.90
19622;DHT22;9958;33.196;-97.114;2023-05-07T06:05:06;20.30;99.90
19622;DHT22;9958;33.196;-97.114;2023-05-07T06:07:34;20.40;99.90
19622;DHT22;9958;33.196;-97.114;2023-05-07T06:10:03;20.40;99.90
19622;DHT22;9958;33.196;-97.114;2023-05-07T06:12:32;20.50;99.90
19622;DHT22;9958;33.196;-97.114;2023-05-07T06:15:00;20.60;99.90
19622;DHT22;9958;33.196;-97.114;2023-05-07T06:17:30;20.60;99.90
19622;DHT22;9958;33.196;-97.114;2023-05-07T06:19:59;20.60;99.90
19622;DHT22;9958;33.196;-97.114;2023-05-07T06:22:27;20.60;99.90
19622;DHT22;9958;33.196;-97.114;2023-05-07T06:24:55;20.60;99.90
19622;DHT22;9958;33.196;-97.114;2023-05-07T06:27:23;20.60;99.90
19622;DHT22;9958;33.196;-97.114;2023-05-07T06:29:52;20.60;99.90
19622;DHT22;9958;33.196;-97.114;2023-05-07T06:32:20;20.70;99.90
19622;DHT22;9958;33.196;-97.114;2023-05-07T06:34:50;20.70;99.90
19622;DHT22;9958;33.196;-97.114;2023-05-07T06:37:19;20.70;99.90
19622;DHT22;9958;33.196;-97.114;2023-05-07T06:39:47;20.70;99.90
19622;DHT22;9958;33.196;-97.114;2023-05-07T06:42:15;20.70;99.90
19622;DHT22;9958;33.196;-97.114;2023-05-07T06:44:44;20.80;99.90
19622;DHT22;9958;33.196;-97.114;2023-05-07T06:47:12;20.80;99.90
19622;DHT22;9958;33.196;-97.114;2023-05-07T06:49:40;20.80;99.90
19622;DHT22;9958;33.196;-97.114;2023-05-07T06:52:10;20.80;99.90
19622;DHT22;9958;33.196;-97.114;2023-05-07T06:54:38;20.90;99.90
19622;DHT22;9958;33.196;-97.114;2023-05-07T06:57:07;20.90;99.90
19622;DHT22;9958;33.196;-97.114;2023-05-07T06:59:35;20.90;99.90
19622;DHT22;9958;33.196;-97.114;2023-05-07T07:02:03;20.90;99.90
19622;DHT22;9958;33.196;-97.114;2023-05-07T07:04:32;20.90;99.90
19622;DHT22;9958;33.196;-97.114;2023-05-07T07:07:00;20.90;99.90
19622;DHT22;9958;33.196;-97.114;2023-05-07T07:09:30;20.90;99.90
19622;DHT22;9958;33.196;-97.114;2023-05-07T07:11:59;21.00;99.90
19622;DHT22;9958;33.196;-97.114;2023-05-07T07:14:27;20.90;99.90
19622;DHT22;9958;33.196;-97.114;2023-05-07T07:16:55;20.90;99.90
19622;DHT22;9958;33.196;-97.114;2023-05-07T07:19:23;20.90;99.90
19622;DHT22;9958;33.196;-97.114;2023-05-07T07:21:52;20.90;99.90
19622;DHT22;9958;33.196;-97.114;2023-05-07T07:24:20;21.00;99.90
19622;DHT22;9958;33.196;-97.114;2023-05-07T07:26:50;20.90;99.90
19622;DHT22;9958;33.196;-97.114;2023-05-07T07:29:18;21.00;99.90
19622;DHT22;9958;33.196;-97.114;2023-05-07T07:31:47;21.00;99.90
19622;DHT22;9958;33.196;-97.114;2023-05-07T07:34:16;21.10;99.90
19622;DHT22;9958;33.196;-97.114;2023-05-07T07:36:44;21.10;99.90
19622;DHT22;9958;33.196;-97.114;2023-05-07T07:39:12;21.10;99.90
19622;DHT22;9958;33.196;-97.114;2023-05-07T07:41:41;21.00;99.90
19622;DHT22;9958;33.196;-97.114;2023-05-07T07:44:11;21.10;99.90
19622;DHT22;9958;33.196;-97.114;2023-05-07T07:46:39;21.10;99.90
19622;DHT22;9958;33.196;-97.114;2023-05-07T07:49:07;21.10;99.90
19622;DHT22;9958;33.196;-97.114;2023-05-07T07:51:36;21.10;99.90
19622;DHT22;9958;33.196;-97.114;2023-05-07T07:54:04;21.00;99.90
19622;DHT22;9958;33.196;-97.114;2023-05-07T07:56:33;21.10;99.90
19622;DHT22;9958;33.196;-97.114;2023-05-07T07:59:01;21.00;99.90
19622;DHT22;9958;33.196;-97.114;2023-05-07T08:01:31;21.00;99.90
19622;DHT22;9958;33.196;-97.114;2023-05-07T08:04:00;20.90;99.90
19622;DHT22;9958;33.196;-97.114;2023-05-07T08:06:29;20.90;99.90
19622;DHT22;9958;33.196;-97.114;2023-05-07T08:08:57;20.90;99.90
19622;DHT22;9958;33.196;-97.114;2023-05-07T08:11:26;20.90;99.90
19622;DHT22;9958;33.196;-97.114;2023-05-07T08:13:54;20.90;99.90
19622;DHT22;9958;33.196;-97.114;2023-05-07T08:16:23;20.90;99.90
19622;DHT22;9958;33.196;-97.114;2023-05-07T08:18:53;20.90;99.90
19622;DHT22;9958;33.196;-97.114;2023-05-07T08:21:21;20.90;99.90
19622;DHT22;9958;33.196;-97.114;2023-05-07T08:23:49;20.80;99.90
19622;DHT22;9958;33.196;-97.114;2023-05-07T08:26:18;20.80;99.90
19622;DHT22;9958;33.196;-97.114;2023-05-07T08:28:46;20.80;99.90
19622;DHT22;9958;33.196;-97.114;2023-05-07T08:31:15;20.80;99.90
19622;DHT22;9958;33.196;-97.114;2023-05-07T08:33:43;20.80;99.90
19622;DHT22;9958;33.196;-97.114;2023-05-07T08:36:13;20.80;99.90
19622;DHT22;9958;33.196;-97.114;2023-05-07T08:38:41;20.80;99.90
19622;DHT22;9958;33.196;-97.114;2023-05-07T08:41:11;20.80;99.90
19622;DHT22;9958;33.196;-97.114;2023-05-07T08:43:41;20.70;99.90
19622;DHT22;9958;33.196;-97.114;2023-05-07T08:46:10;20.70;99.90
19622;DHT22;9958;33.196;-97.114;2023-05-07T08:48:39;20.70;99.90
19622;DHT22;9958;33.196;-97.114;2023-05-07T08:51:08;20.70;99.90
19622;DHT22;9958;33.196;-97.114;2023-05-07T08:53:41;20.60;99.90
19622;DHT22;9958;33.196;-97.114;2023-05-07T08:56:09;20.60;99.90
19622;DHT22;9958;33.196;-97.114;2023-05-07T08:58:38;20.60;99.90
19622;DHT22;9958;33.196;-97.114;2023-05-07T09:01:08;20.50;99.90
19622;DHT22;9958;33.196;-97.114;2023-05-07T09:03:38;20.50;99.90
19622;DHT22;9958;33.196;-97.114;2023-05-07T09:06:06;20.50;99.90
19622;DHT22;9958;33.196;-97.114;2023-05-07T09:08:37;20.50;99.90
19622;DHT22;9958;33.196;-97.114;2023-05-07T09:11:05;20.50;99.90
19622;DHT22;9958;33.196;-97.114;2023-05-07T09:13:34;20.50;99.90
19622;DHT22;9958;33.196;-97.114;2023-05-07T09:16:11;20.50;99.90
19622;DHT22;9958;33.196;-97.114;2023-05-07T09:18:43;20.50;99.90
19622;DHT22;9958;33.196;-97.114;2023-05-07T09:21:12;20.50;99.90
19622;DHT22;9958;33.196;-97.114;2023-05-07T09:23:44;20.60;99.90
19622;DHT22;9958;33.196;-97.114;2023-05-07T09:26:12;20.60;99.90
19622;DHT22;9958;33.196;-97.114;2023-05-07T09:28:42;20.60;99.90
19622;DHT22;9958;33.196;-97.114;2023-05-07T09:31:11;20.70;99.90
19622;DHT22;9958;33.196;-97.114;2023-05-07T09:33:40;20.70;99.90
19622;DHT22;9958;33.196;-97.114;2023-05-07T09:36:09;20.70;99.90
19622;DHT22;9958;33.196;-97.114;2023-05-07T09:38:38;20.80;99.90
19622;DHT22;9958;33.196;-97.114;2023-05-07T09:41:09;20.80;99.90
19622;DHT22;9958;33.196;-97.114;2023-05-07T09:43:39;20.90;99.90
19622;DHT22;9958;33.196;-97.114;2023-05-07T09:46:10;20.80;99.90
19622;DHT22;9958;33.196;-97.114;2023-05-07T09:48:42;20.90;99.90
19622;DHT22;9958;33.196;-97.114;2023-05-07T09:51:18;20.90;99.90
19622;DHT22;9958;33.196;-97.114;2023-05-07T09:53:51;20.80;99.90
19622;DHT22;9958;33.196;-97.114;2023-05-07T09:56:22;20.80;99.90
19622;DHT22;9958;33.196;-97.114;2023-05-07T09:58:52;20.80;99.90
19622;DHT22;9958;33.196;-97.114;2023-05-07T10:01:22;20.80;99.90
19622;DHT22;9958;33.196;-97.114;2023-05-07T10:03:53;20.80;99.90
19622;DHT22;9958;33.196;-97.114;2023-05-07T10:06:21;20.80;99.90
19622;DHT22;9958;33.196;-97.114;2023-05-07T10:08:51;20.70;99.90
19622;DHT22;9958;33.196;-97.114;2023-05-07T10:11:22;20.70;99.90
19622;DHT22;9958;33.196;-97.114;2023-05-07T10:13:51;20.70;99.90
19622;DHT22;9958;33.196;-97.114;2023-05-07T10:16:21;20.70;99.90
19622;DHT22;9958;33.196;-97.114;2023-05-07T10:18:50;20.60;99.90
19622;DHT22;9958;33.196;-97.114;2023-05-07T10:21:20;20.60;99.90
19622;DHT22;9958;33.196;-97.114;2023-05-07T10:23:50;20.60;99.90
19622;DHT22;9958;33.196;-97.114;2023-05-07T10:26:22;20.60;99.90
19622;DHT22;9958;33.196;-97.114;2023-05-07T10:28:54;20.60;99.90
19622;DHT22;9958;33.196;-97.114;2023-05-07T10:31:48;20.60;99.90
19622;DHT22;9958;33.196;-97.114;2023-05-07T10:34:23;20.60;99.90
19622;DHT22;9958;33.196;-97.114;2023-05-07T10:36:52;20.60;99.90
19622;DHT22;9958;33.196;-97.114;2023-05-07T10:39:22;20.60;99.90
19622;DHT22;9958;33.196;-97.114;2023-05-07T10:41:53;20.60;99.90
19622;DHT22;9958;33.196;-97.114;2023-05-07T10:44:28;20.50;99.90
19622;DHT22;9958;33.196;-97.114;2023-05-07T10:47:07;20.50;99.90
19622;DHT22;9958;33.196;-97.114;2023-05-07T10:49:36;20.50;99.90
19622;DHT22;9958;33.196;-97.114;2023-05-07T10:52:15;20.50;99.90
19622;DHT22;9958;33.196;-97.114;2023-05-07T10:54:44;20.50;99.90
19622;DHT22;9958;33.196;-97.114;2023-05-07T10:57:35;20.50;99.90
19622;DHT22;9958;33.196;-97.114;2023-05-07T11:00:04;20.50;99.90
19622;DHT22;9958;33.196;-97.114;2023-05-07T11:03:16;20.40;99.90
19622;DHT22;9958;33.196;-97.114;2023-05-07T11:05:44;20.40;99.90
19622;DHT22;9958;33.196;-97.114;2023-05-07T11:08:13;20.40;99.90
19622;DHT22;9958;33.196;-97.114;2023-05-07T11:10:49;20.40;99.90
19622;DHT22;9958;33.196;-97.114;2023-05-07T11:13:42;20.40;99.90
19622;DHT22;9958;33.196;-97.114;2023-05-07T11:16:18;20.30;99.90
19622;DHT22;9958;33.196;-97.114;2023-05-07T11:18:47;20.30;99.90
19622;DHT22;9958;33.196;-97.114;2023-05-07T11:21:34;20.30;99.90
19622;DHT22;9958;33.196;-97.114;2023-05-07T11:24:04;20.30;99.90
19622;DHT22;9958;33.196;-97.114;2023-05-07T11:26:45;20.30;99.90
19622;DHT22;9958;33.196;-97.114;2023-05-07T11:29:17;20.30;99.90
19622;DHT22;9958;33.196;-97.114;2023-05-07T11:31:49;20.30;99.90
19622;DHT22;9958;33.196;-97.114;2023-05-07T11:34:21;20.30;99.90
19622;DHT22;9958;33.196;-97.114;2023-05-07T11:36:50;20.30;99.90
19622;DHT22;9958;33.196;-97.114;2023-05-07T11:39:29;20.20;99.90
19622;DHT22;9958;33.196;-97.114;2023-05-07T11:41:58;20.30;99.90
19622;DHT22;9958;33.196;-97.114;2023-05-07T11:44:41;20.20;99.90
19622;DHT22;9958;33.196;-97.114;2023-05-07T11:47:10;20.30;99.90
19622;DHT22;9958;33.196;-97.114;2023-05-07T11:49:38;20.30;99.90
19622;DHT22;9958;33.196;-97.114;2023-05-07T11:52:07;20.30;99.90
19622;DHT22;9958;33.196;-97.114;2023-05-07T11:54:38;20.30;99.90
19622;DHT22;9958;33.196;-97.114;2023-05-07T11:57:07;20.40;99.90
19622;DHT22;9958;33.196;-97.114;2023-05-07T11:59:43;20.40;99.90
19622;DHT22;9958;33.196;-97.114;2023-05-07T12:02:14;20.40;99.90
19622;DHT22;9958;33.196;-97.114;2023-05-07T12:04:43;20.50;99.90
19622;DHT22;9958;33.196;-97.114;2023-05-07T12:07:14;20.50;99.90
19622;DHT22;9958;33.196;-97.114;2023-05-07T12:09:43;20.60;99.90
19622;DHT22;9958;33.196;-97.114;2023-05-07T12:12:12;20.70;99.90
19622;DHT22;9958;33.196;-97.114;2023-05-07T12:14:44;20.80;99.90
19622;DHT22;9958;33.196;-97.114;2023-05-07T12:17:14;20.90;99.90
19622;DHT22;9958;33.196;-97.114;2023-05-07T12:19:43;21.00;99.90
19622;DHT22;9958;33.196;-97.114;2023-05-07T12:22:13;21.20;99.90
19622;DHT22;9958;33.196;-97.114;2023-05-07T12:24:46;21.40;99.90
19622;DHT22;9958;33.196;-97.114;2023-05-07T12:27:15;21.50;99.90
19622;DHT22;9958;33.196;-97.114;2023-05-07T12:29:47;21.70;99.90
19622;DHT22;9958;33.196;-97.114;2023-05-07T12:32:16;22.10;99.90
19622;DHT22;9958;33.196;-97.114;2023-05-07T12:34:44;22.60;99.90
19622;DHT22;9958;33.196;-97.114;2023-05-07T12:37:13;23.20;99.90
19622;DHT22;9958;33.196;-97.114;2023-05-07T12:39:46;23.90;99.90
19622;DHT22;9958;33.196;-97.114;2023-05-07T12:42:16;24.80;99.90
19622;DHT22;9958;33.196;-97.114;2023-05-07T12:44:47;25.60;99.90
19622;DHT22;9958;33.196;-97.114;2023-05-07T12:47:16;26.40;99.90
19622;DHT22;9958;33.196;-97.114;2023-05-07T12:49:44;27.10;99.90
19622;DHT22;9958;33.196;-97.114;2023-05-07T12:52:14;27.70;99.90
19622;DHT22;9958;33.196;-97.114;2023-05-07T12:54:42;28.20;99.90
19622;DHT22;9958;33.196;-97.114;2023-05-07T12:57:12;28.40;99.90
19622;DHT22;9958;33.196;-97.114;2023-05-07T12:59:41;28.60;99.90
19622;DHT22;9958;33.196;-97.114;2023-05-07T13:02:11;28.70;99.90
19622;DHT22;9958;33.196;-97.114;2023-05-07T13:04:40;28.70;99.90
19622;DHT22;9958;33.196;-97.114;2023-05-07T13:07:08;28.60;99.90
19622;DHT22;9958;33.196;-97.114;2023-05-07T13:09:36;28.60;99.90
19622;DHT22;9958;33.196;-97.114;2023-05-07T13:12:05;28.30;99.90
19622;DHT22;9958;33.196;-97.114;2023-05-07T13:14:33;28.00;99.90
19622;DHT22;9958;33.196;-97.114;2023-05-07T13:17:01;27.70;99.90
19622;DHT22;9958;33.196;-97.114;2023-05-07T13:19:31;27.50;99.90
19622;DHT22;9958;33.196;-97.114;2023-05-07T13:22:00;27.30;99.90
19622;DHT22;9958;33.196;-97.114;2023-05-07T13:24:28;27.10;99.90
19622;DHT22;9958;33.196;-97.114;2023-05-07T13:26:57;27.00;99.90
19622;DHT22;9958;33.196;-97.114;2023-05-07T13:29:25;26.80;99.90
19622;DHT22;9958;33.196;-97.114;2023-05-07T13:31:56;26.60;99.90
19622;DHT22;9958;33.196;-97.114;2023-05-07T13:34:25;26.50;99.90
19622;DHT22;9958;33.196;-97.114;2023-05-07T13:36:55;26.40;99.90
19622;DHT22;9958;33.196;-97.114;2023-05-07T13:39:23;26.20;99.90
19622;DHT22;9958;33.196;-97.114;2023-05-07T13:41:51;26.10;99.90
19622;DHT22;9958;33.196;-97.114;2023-05-07T13:44:19;25.90;99.90
19622;DHT22;9958;33.196;-97.114;2023-05-07T13:46:48;25.90;99.90
19622;DHT22;9958;33.196;-97.114;2023-05-07T13:49:17;25.80;99.90
19622;DHT22;9958;33.196;-97.114;2023-05-07T13:51:45;25.80;99.90
19622;DHT22;9958;33.196;-97.114;2023-05-07T13:54:15;25.80;99.90
19622;DHT22;9958;33.196;-97.114;2023-05-07T13:56:44;25.90;99.90
19622;DHT22;9958;33.196;-97.114;2023-05-07T13:59:12;25.90;99.90
19622;DHT22;9958;33.196;-97.114;2023-05-07T14:01:41;25.90;99.90
19622;DHT22;9958;33.196;-97.114;2023-05-07T14:04:09;26.00;99.90
19622;DHT22;9958;33.196;-97.114;2023-05-07T14:06:38;26.10;99.90
19622;DHT22;9958;33.196;-97.114;2023-05-07T14:09:06;26.20;99.90
19622;DHT22;9958;33.196;-97.114;2023-05-07T14:11:36;26.30;99.90
19622;DHT22;9958;33.196;-97.114;2023-05-07T14:14:04;26.50;99.90
19622;DHT22;9958;33.196;-97.114;2023-05-07T14:16:33;26.70;99.90
19622;DHT22;9958;33.196;-97.114;2023-05-07T14:19:01;26.80;99.90
19622;DHT22;9958;33.196;-97.114;2023-05-07T14:21:29;26.90;99.90
19622;DHT22;9958;33.196;-97.114;2023-05-07T14:23:58;27.00;99.90
19622;DHT22;9958;33.196;-97.114;2023-05-07T14:26:27;27.10;99.90
19622;DHT22;9958;33.196;-97.114;2023-05-07T14:28:57;27.20;99.90
19622;DHT22;9958;33.196;-97.114;2023-05-07T14:31:25;27.30;99.90
19622;DHT22;9958;33.196;-97.114;2023-05-07T14:33:54;27.40;99.90
19622;DHT22;9958;33.196;-97.114;2023-05-07T14:36:24;27.50;99.90
19622;DHT22;9958;33.196;-97.114;2023-05-07T14:38:53;27.60;99.90
19622;DHT22;9958;33.196;-97.114;2023-05-07T14:41:22;27.70;99.90
19622;DHT22;9958;33.196;-97.114;2023-05-07T14:43:50;27.80;99.90
19622;DHT22;9958;33.196;-97.114;2023-05-07T14:46:20;27.90;99.90
19622;DHT22;9958;33.196;-97.114;2023-05-07T14:48:50;27.90;99.90
19622;DHT22;9958;33.196;-97.114;2023-05-07T14:51:18;28.10;99.90
19622;DHT22;9958;33.196;-97.114;2023-05-07T14:53:46;28.20;99.90
19622;DHT22;9958;33.196;-97.114;2023-05-07T14:56:15;28.20;99.90
19622;DHT22;9958;33.196;-97.114;2023-05-07T14:58:43;28.30;99.90
19622;DHT22;9958;33.196;-97.114;2023-05-07T15:01:11;28.30;99.90
19622;DHT22;9958;33.196;-97.114;2023-05-07T15:03:41;28.30;99.90
19622;DHT22;9958;33.196;-97.114;2023-05-07T15:06:10;28.30;99.90
19622;DHT22;9958;33.196;-97.114;2023-05-07T15:08:38;28.40;99.90
19622;DHT22;9958;33.196;-97.114;2023-05-07T15:11:06;28.40;99.90
19622;DHT22;9958;33.196;-97.114;2023-05-07T15:13:35;28.50;99.90
19622;DHT22;9958;33.196;-97.114;2023-05-07T15:16:03;28.60;99.90
19622;DHT22;9958;33.196;-97.114;2023-05-07T15:18:31;28.80;99.90
19622;DHT22;9958;33.196;-97.114;2023-05-07T15:21:01;28.90;99.90
19622;DHT22;9958;33.196;-97.114;2023-05-07T15:23:30;29.00;99.90
19622;DHT22;9958;33.196;-97.114;2023-05-07T15:25:58;29.00;99.90
19622;DHT22;9958;33.196;-97.114;2023-05-07T15:28:27;29.00;99.90